createdAt,value
2023-01-28T00:05:46.003Z,63.60
2023-01-28T00:12:47.600Z,63.79
2023-01-28T00:19:49.294Z,63.93
2023-01-28T00:26:51.404Z,63.57
2023-01-28T00:33:53.269Z,64.20
2023-01-28T00:40:55.121Z,63.97
2023-01-28T00:47:58.461Z,64.30
2023-01-28T00:55:00.485Z,64.65
2023-01-28T01:02:12.469Z,64.68
2023-01-28T01:09:14.369Z,64.71
2023-01-28T01:16:19.333Z,64.79
2023-01-28T01:23:23.512Z,65.44
2023-01-28T01:30:25.602Z,65.67
2023-01-28T01:37:27.861Z,65.90
2023-01-28T01:45:00.932Z,65.78
2023-01-28T01:52:06.169Z,65.56
2023-01-28T01:59:12.771Z,66.18
2023-01-28T02:06:14.559Z,66.04
2023-01-28T02:13:17.945Z,65.89
2023-01-28T02:20:58.329Z,65.85
2023-01-28T02:28:23.900Z,65.51
2023-01-28T02:36:02.538Z,65.35
2023-01-28T02:43:04.607Z,65.58
2023-01-28T02:50:12.007Z,65.92
2023-01-28T02:57:27.207Z,65.14
2023-01-28T03:04:30.386Z,65.27
2023-01-28T03:11:52.720Z,65.19
2023-01-28T03:19:12.979Z,64.92
2023-01-28T03:26:33.408Z,64.96
2023-01-28T03:33:54.118Z,64.82
2023-01-28T03:40:57.471Z,64.66
2023-01-28T03:47:59.376Z,64.23
2023-01-28T03:55:01.574Z,63.39
2023-01-28T04:02:03.529Z,63.49
2023-01-28T04:09:06.008Z,63.38
2023-01-28T04:16:23.090Z,63.66
2023-01-28T04:23:24.884Z,63.23
2023-01-28T04:30:26.977Z,61.34
2023-01-28T04:37:43.763Z,61.79
2023-01-28T04:45:11.633Z,62.30
2023-01-28T04:52:33.634Z,61.44
2023-01-28T04:59:44.289Z,61.35
2023-01-28T05:06:47.079Z,60.62
2023-01-28T05:13:51.817Z,61.02
2023-01-28T05:20:55.018Z,60.38
2023-01-28T05:27:56.821Z,59.86
2023-01-28T05:34:58.552Z,58.96
2023-01-28T05:42:00.680Z,59.20
2023-01-28T05:49:03.177Z,59.24
2023-01-28T05:56:22.987Z,58.98
2023-01-28T06:03:24.839Z,58.36
2023-01-28T06:10:26.829Z,58.96
2023-01-28T06:17:29.655Z,58.93
2023-01-28T06:24:42.410Z,59.09
2023-01-28T06:31:44.200Z,58.77
2023-01-28T06:38:45.867Z,59.00
2023-01-28T06:45:47.519Z,58.34
2023-01-28T06:52:49.187Z,58.63
2023-01-28T06:59:50.860Z,58.67
2023-01-28T07:06:52.463Z,58.90
2023-01-28T07:13:54.079Z,58.71
2023-01-28T07:20:56.461Z,57.88
2023-01-28T07:28:00.655Z,58.24
2023-01-28T07:35:02.240Z,57.31
2023-01-28T07:42:03.970Z,57.25
2023-01-28T07:49:10.487Z,56.58
2023-01-28T07:56:12.027Z,56.38
2023-01-28T08:03:16.887Z,56.27
2023-01-28T08:10:18.833Z,56.08
2023-01-28T08:17:20.433Z,55.60
2023-01-28T08:24:22.234Z,53.03
2023-01-28T08:31:24.256Z,54.30
2023-01-28T08:38:25.903Z,54.20
2023-01-28T08:45:28.180Z,54.28
2023-01-28T08:52:29.901Z,53.84
2023-01-28T08:59:31.756Z,53.56
2023-01-28T09:06:33.436Z,53.40
2023-01-28T09:13:35.131Z,53.53
2023-01-28T09:20:37.094Z,52.24
2023-01-28T09:27:38.826Z,52.36
2023-01-28T09:34:40.553Z,52.28
2023-01-28T09:41:51.327Z,51.81
2023-01-28T09:48:52.945Z,51.56
2023-01-28T09:56:06.222Z,51.54
2023-01-28T10:03:29.525Z,50.63
2023-01-28T10:10:38.874Z,50.14
2023-01-28T10:17:44.081Z,49.87
2023-01-28T10:24:51.395Z,49.99
2023-01-28T10:32:04.171Z,49.97
2023-01-28T10:39:06.741Z,50.23
2023-01-28T10:46:20.173Z,49.74
2023-01-28T10:53:36.964Z,49.90
2023-01-28T11:00:38.634Z,49.82
2023-01-28T11:07:40.275Z,48.50
2023-01-28T11:14:50.781Z,49.10
2023-01-28T11:21:54.082Z,48.87
2023-01-28T11:28:55.673Z,48.80
2023-01-28T11:36:18.534Z,48.92
2023-01-28T11:43:24.871Z,48.76
2023-01-28T11:50:35.582Z,49.30
2023-01-28T11:57:46.991Z,47.46
2023-01-28T12:04:48.554Z,48.48
2023-01-28T12:12:13.241Z,49.46
2023-01-28T12:19:22.375Z,48.68
2023-01-28T12:26:48.610Z,49.34
2023-01-28T12:33:56.212Z,50.59
2023-01-28T12:41:07.887Z,51.46
2023-01-28T12:48:27.466Z,51.48
2023-01-28T12:55:40.044Z,50.76
2023-01-28T13:02:43.186Z,51.43
2023-01-28T13:09:59.019Z,51.25
2023-01-28T13:17:13.452Z,51.14
2023-01-28T13:24:15.366Z,50.99
2023-01-28T13:31:18.645Z,51.98
2023-01-28T13:38:20.349Z,52.77
2023-01-28T13:45:23.183Z,53.16
2023-01-28T13:52:29.116Z,53.38
2023-01-28T13:59:59.970Z,52.11
2023-01-28T14:07:01.440Z,51.06
2023-01-28T14:14:23.251Z,50.42
2023-01-28T14:21:26.427Z,50.45
2023-01-28T14:28:52.388Z,50.20
2023-01-28T14:35:54.053Z,50.05
2023-01-28T14:42:55.771Z,50.22
2023-01-28T14:50:03.568Z,49.99
2023-01-28T14:57:26.114Z,50.30
2023-01-28T15:04:32.305Z,49.11
2023-01-28T15:11:33.988Z,48.64
2023-01-28T15:18:37.334Z,49.45
2023-01-28T15:25:38.891Z,48.33
2023-01-28T15:32:40.490Z,48.63
2023-01-28T15:39:42.117Z,48.70
2023-01-28T15:46:43.726Z,48.70
2023-01-28T15:53:46.599Z,48.56
2023-01-28T16:00:48.471Z,48.37
2023-01-28T16:07:50.218Z,48.64
2023-01-28T16:14:54.491Z,48.88
2023-01-28T16:21:56.116Z,49.28
2023-01-28T16:28:59.137Z,49.76
2023-01-28T16:36:08.944Z,49.52
2023-01-28T16:43:11.959Z,49.42
2023-01-28T16:50:14.119Z,49.70
2023-01-28T16:57:16.588Z,48.91
2023-01-28T17:04:18.303Z,49.14
2023-01-28T17:11:19.957Z,49.46
2023-01-28T17:18:21.655Z,49.44
2023-01-28T17:32:24.934Z,49.12
2023-01-28T17:39:26.541Z,48.92
2023-01-28T17:46:28.357Z,48.82
2023-01-28T17:53:30.498Z,48.84
2023-01-28T18:00:32.313Z,48.71
2023-01-28T18:07:33.965Z,49.31
2023-01-28T18:14:35.728Z,49.39
2023-01-28T18:21:54.159Z,49.35
2023-01-28T18:28:57.831Z,48.89
2023-01-28T18:36:00.677Z,49.42
2023-01-28T18:43:02.269Z,48.87
2023-01-28T18:50:05.385Z,49.51
2023-01-28T18:57:07.197Z,49.66
2023-01-28T19:04:08.961Z,49.92
2023-01-28T19:11:10.546Z,49.89
2023-01-28T19:18:12.312Z,50.37
2023-01-28T19:25:14.377Z,50.03
2023-01-28T19:32:17.013Z,49.92
2023-01-28T19:39:18.669Z,50.00
2023-01-28T19:46:20.373Z,50.19
2023-01-28T19:53:22.016Z,50.47
2023-01-28T20:00:23.668Z,50.79
2023-01-28T20:07:25.265Z,51.53
2023-01-28T20:14:27.895Z,51.02
2023-01-28T20:21:29.882Z,51.02
2023-01-28T20:28:31.583Z,51.77
2023-01-28T20:35:33.411Z,51.72
2023-01-28T20:42:35.093Z,51.81
2023-01-28T20:49:36.783Z,52.26
2023-01-28T20:56:38.402Z,51.92
2023-01-28T21:03:39.967Z,52.70
2023-01-28T21:10:42.319Z,52.18
2023-01-28T21:17:43.970Z,52.37
2023-01-28T21:24:48.063Z,52.24
2023-01-28T21:31:49.672Z,52.88
2023-01-28T21:38:56.348Z,52.80
2023-01-28T21:46:01.523Z,53.36
2023-01-28T21:53:03.188Z,53.75
2023-01-28T22:00:05.746Z,54.47
2023-01-28T22:07:17.085Z,54.21
2023-01-28T22:14:19.016Z,54.32
2023-01-28T22:21:20.693Z,54.73
2023-01-28T22:28:22.953Z,54.04
2023-01-28T22:35:24.562Z,54.97
2023-01-28T22:42:26.269Z,55.00
2023-01-28T22:49:27.894Z,55.29
2023-01-28T22:56:30.459Z,54.97
2023-01-28T23:03:32.290Z,55.58
2023-01-28T23:10:34.089Z,55.77
2023-01-28T23:17:54.410Z,55.53
2023-01-28T23:24:56.134Z,54.94
2023-01-28T23:32:06.409Z,54.64
2023-01-28T23:39:08.562Z,54.90
2023-01-28T23:46:10.549Z,55.10
2023-01-28T23:53:14.402Z,55.35
